Nearby METAR Reports

 

KCOE - Coeur D'alene, Idaho, USA
Distance from station: SSE 4mi, 7km
Updated: Fri, 19-Apr-2024 4:56pm PDT
Clear
Clear
 Wind from N
Wind: N 13 mph , 20 km/h
Temperature: 54°F , 12°C
Dew Point: 18°F , -8°C
Humidity: 24%
Barometer: 30.20 inHg , 1022.7 hPa
Clouds: Clear
Visibility: 10 miles , 16 km
2024/04/19 23:56 KCOE 192356Z AUTO 36011KT 10SM CLR 12/M08 A3020 RMK AO2 SLP253 T01221083 10133 20089 56016
KSFF - Spokane/Felts, Washington, USA
Distance from station: WSW 24mi, 39km
Updated: Fri, 19-Apr-2024 4:53pm PDT
Clear
Clear
 Wind from NNE
Wind: NNE 5 mph , 7 km/h
Temperature: 59°F , 15°C
Dew Point: 21°F , -6°C
Humidity: 23%
Barometer: 30.19 inHg , 1022.4 hPa
Clouds: Clear
Visibility: 10 miles , 16 km
2024/04/19 23:53 KSFF 192353Z 02004KT 10SM CLR 15/M06 A3019 RMK AO2 SLP229 T01501056 10150 20100 58016
 
KDEW - Deer Park, Washington, USA
Distance from station: WNW 29mi, 47km
Updated: Fri, 19-Apr-2024 4:53pm PDT
Clear
Clear
 Wind from NNE
Wind: NNE 16 mph , 26 km/h, Gust: 23 mph , 37 km/h
Temperature: 55°F , 13°C
Dew Point: 18°F , -8°C
Humidity: 23%
Barometer: 30.21 inHg , 1023 hPa
Clouds: Clear
Visibility: 10 miles , 16 km
2024/04/19 23:53 KDEW 192353Z AUTO 03014G20KT 10SM CLR 13/M08 A3021 RMK AO2 SLP240 T01331083 10139 20094 56015
KSZT - Wall/Sandpoint, Idaho, USA
Distance from station: NNE 35mi, 56km
Updated: Fri, 19-Apr-2024 4:55pm PDT
Clear
Clear
 Wind from NNE
Wind: NNE 10 mph , 17 km/h, Gust: 20 mph , 31 km/h
Temperature: 54°F , 12°C
Dew Point: 10°F , -12°C
Humidity: 18%
Barometer: 30.24 inHg , 1024 hPa
Clouds: Clear
Visibility: 10 miles , 16 km
2024/04/19 23:55 KSZT 192355Z AUTO 03009G17KT 10SM CLR 12/M12 A3024 RMK AO2
 
KGEG - Spokane/Metro, Washington, USA
Distance from station: WSW 35mi, 57km
Updated: Fri, 19-Apr-2024 4:53pm PDT
Few Clouds
Few Clouds
 Wind from NE
Wind: NE 18 mph , 30 km/h, Gust: 23 mph , 37 km/h
Temperature: 57°F , 14°C
Dew Point: 18°F , -8°C
Humidity: 21%
Barometer: 30.18 inHg , 1022 hPa
Clouds: Few Clouds
Visibility: 10 miles , 16 km
Cloud details: Few Clouds 5000 ft
Few Clouds 20000 ft
2024/04/19 23:53 KGEG 192353Z 05016G20KT 10SM FEW050 FEW200 14/M08 A3018 RMK AO2 SLP228 T01441078 10144 20094 57015
KSKA - Fairchild Afb, Washington, USA
Distance from station: WSW 40mi, 65km
Updated: Fri, 19-Apr-2024 5:07pm PDT
Clear
Clear
 Wind from ENE
Wind: ENE 14 mph , 22 km/h, Gust: 20 mph , 31 km/h
Temperature: 55°F , 13°C
Dew Point: 18°F , -8°C
Humidity: 23%
Barometer: 30.17 inHg , 1021.7 hPa
Clouds: Clear
Visibility: 10 miles , 16 km
2024/04/20 00:07 KSKA 200007Z 07012G17KT 10SM CLR 13/M08 A3017 RMK AO2A WSHFT 04 SLP225 $